Terminal Aerodrome Forecast
Issued by NWS Sioux Falls, SD

Home | Current Version | Previous Version | Graphics & Text | Print | Product List | Glossary On
Versions: 1 2 3 4 5 6 7 8 9 10 11 12 13 14 15 16 17 18 19 20 21 22 23 24 25 26 27 28 29 30 31 32 33 34
309
FTUS43 KFSD 251720
TAFSUX
TAF
KSUX 251720Z 2518/2618 01012KT P6SM RA OVC015
     FM260000 35013G21KT 4SM -RA OVC010
     FM260200 34014KT 3SM -RA OVC008
     FM260400 33014KT P6SM VCSH OVC008
     FM261100 32015G23KT P6SM VCSH OVC010
     FM261200 33016G24KT P6SM OVC010=

USA.gov is the U.S. government's official web portal to all federal, state and local government web resources and services.